Aviation Digital Data Service (ADDS)

Output produced by TAFs form (1238 UTC 20 August 2014)
found at http://aviationweather.gov/adds/tafs/
 
KSAF 201126Z 2012/2112 VRB05KT P6SM SCT060 BKN120 
     FM201600 30007KT P6SM SCT060 SCT100 
     FM201900 29010KT P6SM SCT070 SCT150 
     FM210100 VRB05KT P6SM FEW120